sensor_id;sensor_type;location;lat;lon;timestamp;P1;durP1;ratioP1;P2;durP2;ratioP2
6249;SDS011;3158;52.148;11.568;2023-08-12T00:03:27;1.33;;;0.68;;
6249;SDS011;3158;52.148;11.568;2023-08-12T00:08:28;1.00;;;1.00;;
6249;SDS011;3158;52.148;11.568;2023-08-12T00:13:29;1.15;;;0.90;;
6249;SDS011;3158;52.148;11.568;2023-08-12T00:18:30;1.10;;;0.82;;
6249;SDS011;3158;52.148;11.568;2023-08-12T00:23:37;1.30;;;0.70;;
6249;SDS011;3158;52.148;11.568;2023-08-12T00:28:39;1.05;;;0.98;;
6249;SDS011;3158;52.148;11.568;2023-08-12T00:33:41;0.85;;;0.85;;
6249;SDS011;3158;52.148;11.568;2023-08-12T00:38:42;5.38;;;1.15;;
6249;SDS011;3158;52.148;11.568;2023-08-12T00:43:43;0.80;;;0.70;;
6249;SDS011;3158;52.148;11.568;2023-08-12T00:48:44;0.80;;;0.80;;
6249;SDS011;3158;52.148;11.568;2023-08-12T00:53:45;0.60;;;0.60;;
6249;SDS011;3158;52.148;11.568;2023-08-12T00:58:47;1.10;;;0.95;;
6249;SDS011;3158;52.148;11.568;2023-08-12T01:03:48;0.70;;;0.70;;
6249;SDS011;3158;52.148;11.568;2023-08-12T01:08:49;3.60;;;0.63;;
6249;SDS011;3158;52.148;11.568;2023-08-12T01:19:11;0.68;;;0.68;;
6249;SDS011;3158;52.148;11.568;2023-08-12T01:24:12;0.85;;;0.80;;
6249;SDS011;3158;52.148;11.568;2023-08-12T01:29:13;0.80;;;0.70;;
6249;SDS011;3158;52.148;11.568;2023-08-12T01:34:22;2.42;;;0.50;;
6249;SDS011;3158;52.148;11.568;2023-08-12T01:39:27;1.10;;;0.65;;
6249;SDS011;3158;52.148;11.568;2023-08-12T01:44:29;0.57;;;0.57;;
6249;SDS011;3158;52.148;11.568;2023-08-12T01:49:30;2.67;;;0.80;;
6249;SDS011;3158;52.148;11.568;2023-08-12T01:54:31;0.90;;;0.70;;
6249;SDS011;3158;52.148;11.568;2023-08-12T01:59:35;0.70;;;0.70;;
6249;SDS011;3158;52.148;11.568;2023-08-12T02:04:36;0.90;;;0.90;;
6249;SDS011;3158;52.148;11.568;2023-08-12T02:09:37;1.85;;;0.70;;
6249;SDS011;3158;52.148;11.568;2023-08-12T02:14:38;0.70;;;0.70;;
6249;SDS011;3158;52.148;11.568;2023-08-12T02:19:39;1.17;;;0.80;;
6249;SDS011;3158;52.148;11.568;2023-08-12T02:24:41;1.25;;;0.80;;
6249;SDS011;3158;52.148;11.568;2023-08-12T02:29:42;1.75;;;0.68;;
6249;SDS011;3158;52.148;11.568;2023-08-12T02:34:43;1.48;;;0.60;;
6249;SDS011;3158;52.148;11.568;2023-08-12T02:39:44;1.50;;;0.90;;
6249;SDS011;3158;52.148;11.568;2023-08-12T02:44:45;0.80;;;0.80;;
6249;SDS011;3158;52.148;11.568;2023-08-12T02:49:47;0.55;;;0.55;;
6249;SDS011;3158;52.148;11.568;2023-08-12T02:54:48;0.60;;;0.60;;
6249;SDS011;3158;52.148;11.568;2023-08-12T02:59:49;0.63;;;0.63;;
6249;SDS011;3158;52.148;11.568;2023-08-12T03:04:50;1.27;;;0.70;;
6249;SDS011;3158;52.148;11.568;2023-08-12T03:09:54;0.95;;;0.93;;
6249;SDS011;3158;52.148;11.568;2023-08-12T03:14:55;0.57;;;0.57;;
6249;SDS011;3158;52.148;11.568;2023-08-12T03:19:57;0.95;;;0.68;;
6249;SDS011;3158;52.148;11.568;2023-08-12T03:25:04;0.60;;;0.60;;
6249;SDS011;3158;52.148;11.568;2023-08-12T03:30:07;0.77;;;0.77;;
6249;SDS011;3158;52.148;11.568;2023-08-12T03:35:08;0.80;;;0.80;;
6249;SDS011;3158;52.148;11.568;2023-08-12T03:40:10;0.85;;;0.85;;
6249;SDS011;3158;52.148;11.568;2023-08-12T03:45:13;2.75;;;0.75;;
6249;SDS011;3158;52.148;11.568;2023-08-12T03:50:14;5.28;;;0.80;;
6249;SDS011;3158;52.148;11.568;2023-08-12T03:55:16;0.70;;;0.70;;
6249;SDS011;3158;52.148;11.568;2023-08-12T04:00:17;1.85;;;0.70;;
6249;SDS011;3158;52.148;11.568;2023-08-12T04:05:18;0.73;;;0.73;;
6249;SDS011;3158;52.148;11.568;2023-08-12T04:10:19;1.80;;;1.17;;
6249;SDS011;3158;52.148;11.568;2023-08-12T04:15:20;1.40;;;1.10;;
6249;SDS011;3158;52.148;11.568;2023-08-12T04:20:22;0.80;;;0.80;;
6249;SDS011;3158;52.148;11.568;2023-08-12T04:25:24;0.77;;;0.77;;
6249;SDS011;3158;52.148;11.568;2023-08-12T04:30:26;0.80;;;0.80;;
6249;SDS011;3158;52.148;11.568;2023-08-12T04:35:27;1.20;;;1.10;;
6249;SDS011;3158;52.148;11.568;2023-08-12T04:40:29;1.02;;;0.98;;
6249;SDS011;3158;52.148;11.568;2023-08-12T04:45:30;0.98;;;0.98;;
6249;SDS011;3158;52.148;11.568;2023-08-12T04:50:32;0.68;;;0.68;;
6249;SDS011;3158;52.148;11.568;2023-08-12T04:55:35;0.98;;;0.98;;
6249;SDS011;3158;52.148;11.568;2023-08-12T05:00:36;0.90;;;0.90;;
6249;SDS011;3158;52.148;11.568;2023-08-12T05:05:38;0.75;;;0.75;;
6249;SDS011;3158;52.148;11.568;2023-08-12T05:10:40;4.15;;;0.93;;
6249;SDS011;3158;52.148;11.568;2023-08-12T05:15:47;0.88;;;0.88;;
6249;SDS011;3158;52.148;11.568;2023-08-12T05:20:51;1.80;;;1.60;;
6249;SDS011;3158;52.148;11.568;2023-08-12T05:25:53;1.10;;;1.00;;
6249;SDS011;3158;52.148;11.568;2023-08-12T05:30:54;1.40;;;1.30;;
6249;SDS011;3158;52.148;11.568;2023-08-12T05:35:55;1.10;;;1.05;;
6249;SDS011;3158;52.148;11.568;2023-08-12T05:40:56;3.83;;;1.10;;
6249;SDS011;3158;52.148;11.568;2023-08-12T05:45:57;1.20;;;1.17;;
6249;SDS011;3158;52.148;11.568;2023-08-12T05:50:58;1.25;;;1.25;;
6249;SDS011;3158;52.148;11.568;2023-08-12T05:56:00;1.83;;;1.20;;
6249;SDS011;3158;52.148;11.568;2023-08-12T06:01:01;1.02;;;0.75;;
6249;SDS011;3158;52.148;11.568;2023-08-12T06:06:02;3.45;;;0.90;;
6249;SDS011;3158;52.148;11.568;2023-08-12T06:11:03;2.58;;;1.02;;
6249;SDS011;3158;52.148;11.568;2023-08-12T06:16:04;0.95;;;0.95;;
6249;SDS011;3158;52.148;11.568;2023-08-12T06:21:05;0.82;;;0.82;;
6249;SDS011;3158;52.148;11.568;2023-08-12T06:26:06;1.55;;;1.30;;
6249;SDS011;3158;52.148;11.568;2023-08-12T06:31:07;2.83;;;1.10;;
6249;SDS011;3158;52.148;11.568;2023-08-12T06:36:08;1.13;;;1.13;;
6249;SDS011;3158;52.148;11.568;2023-08-12T06:41:09;1.10;;;1.00;;
6249;SDS011;3158;52.148;11.568;2023-08-12T06:46:10;2.25;;;1.05;;
6249;SDS011;3158;52.148;11.568;2023-08-12T06:51:12;1.45;;;1.35;;
6249;SDS011;3158;52.148;11.568;2023-08-12T06:56:13;2.22;;;1.05;;
6249;SDS011;3158;52.148;11.568;2023-08-12T07:01:14;1.35;;;1.25;;
6249;SDS011;3158;52.148;11.568;2023-08-12T07:06:15;1.23;;;1.13;;
6249;SDS011;3158;52.148;11.568;2023-08-12T07:11:16;1.83;;;1.67;;
6249;SDS011;3158;52.148;11.568;2023-08-12T07:16:17;1.10;;;1.10;;
6249;SDS011;3158;52.148;11.568;2023-08-12T07:21:18;1.00;;;0.90;;
6249;SDS011;3158;52.148;11.568;2023-08-12T07:26:19;1.30;;;1.00;;
6249;SDS011;3158;52.148;11.568;2023-08-12T07:31:20;1.35;;;1.33;;
6249;SDS011;3158;52.148;11.568;2023-08-12T07:36:21;1.75;;;1.25;;
6249;SDS011;3158;52.148;11.568;2023-08-12T07:41:22;1.10;;;1.10;;
6249;SDS011;3158;52.148;11.568;2023-08-12T07:46:27;1.00;;;1.00;;
6249;SDS011;3158;52.148;11.568;2023-08-12T07:51:29;1.00;;;0.90;;
6249;SDS011;3158;52.148;11.568;2023-08-12T07:56:30;7.90;;;1.60;;
6249;SDS011;3158;52.148;11.568;2023-08-12T08:01:32;1.10;;;1.10;;
6249;SDS011;3158;52.148;11.568;2023-08-12T08:06:33;1.58;;;1.48;;
6249;SDS011;3158;52.148;11.568;2023-08-12T08:11:34;1.52;;;1.42;;
6249;SDS011;3158;52.148;11.568;2023-08-12T08:16:35;2.75;;;1.10;;
6249;SDS011;3158;52.148;11.568;2023-08-12T08:21:36;1.15;;;1.05;;
6249;SDS011;3158;52.148;11.568;2023-08-12T08:26:38;2.63;;;1.55;;
6249;SDS011;3158;52.148;11.568;2023-08-12T08:31:40;2.08;;;1.25;;
6249;SDS011;3158;52.148;11.568;2023-08-12T08:36:41;1.58;;;1.38;;
6249;SDS011;3158;52.148;11.568;2023-08-12T08:41:43;1.20;;;1.20;;
6249;SDS011;3158;52.148;11.568;2023-08-12T08:46:46;1.05;;;0.90;;
6249;SDS011;3158;52.148;11.568;2023-08-12T08:51:47;1.23;;;1.13;;
6249;SDS011;3158;52.148;11.568;2023-08-12T08:56:49;1.00;;;1.00;;
6249;SDS011;3158;52.148;11.568;2023-08-12T09:01:50;2.17;;;1.05;;
6249;SDS011;3158;52.148;11.568;2023-08-12T09:06:52;1.10;;;1.10;;
6249;SDS011;3158;52.148;11.568;2023-08-12T09:11:53;1.27;;;1.15;;
6249;SDS011;3158;52.148;11.568;2023-08-12T09:16:55;0.73;;;0.73;;
6249;SDS011;3158;52.148;11.568;2023-08-12T09:21:56;1.00;;;1.00;;
6249;SDS011;3158;52.148;11.568;2023-08-12T09:26:57;1.23;;;0.90;;
6249;SDS011;3158;52.148;11.568;2023-08-12T09:32:19;1.10;;;1.10;;
6249;SDS011;3158;52.148;11.568;2023-08-12T09:37:20;0.95;;;0.85;;
6249;SDS011;3158;52.148;11.568;2023-08-12T09:42:22;0.80;;;0.80;;
6249;SDS011;3158;52.148;11.568;2023-08-12T09:47:24;1.60;;;1.35;;
6249;SDS011;3158;52.148;11.568;2023-08-12T09:52:27;3.90;;;3.20;;
6249;SDS011;3158;52.148;11.568;2023-08-12T09:57:28;2.35;;;1.05;;
6249;SDS011;3158;52.148;11.568;2023-08-12T10:02:31;1.33;;;1.23;;
6249;SDS011;3158;52.148;11.568;2023-08-12T10:07:32;1.42;;;1.00;;
6249;SDS011;3158;52.148;11.568;2023-08-12T10:12:33;3.50;;;1.08;;
6249;SDS011;3158;52.148;11.568;2023-08-12T10:17:35;2.35;;;1.33;;
6249;SDS011;3158;52.148;11.568;2023-08-12T10:22:36;0.93;;;0.93;;
6249;SDS011;3158;52.148;11.568;2023-08-12T10:27:39;0.90;;;0.90;;
6249;SDS011;3158;52.148;11.568;2023-08-12T10:32:40;3.05;;;1.17;;
6249;SDS011;3158;52.148;11.568;2023-08-12T10:37:41;1.05;;;1.00;;
6249;SDS011;3158;52.148;11.568;2023-08-12T10:42:44;1.00;;;1.00;;
6249;SDS011;3158;52.148;11.568;2023-08-12T10:47:48;0.93;;;0.93;;
6249;SDS011;3158;52.148;11.568;2023-08-12T10:52:53;1.30;;;1.30;;
6249;SDS011;3158;52.148;11.568;2023-08-12T10:57:55;1.90;;;1.80;;
6249;SDS011;3158;52.148;11.568;2023-08-12T11:02:56;1.60;;;1.60;;
6249;SDS011;3158;52.148;11.568;2023-08-12T11:07:58;1.80;;;1.67;;
6249;SDS011;3158;52.148;11.568;2023-08-12T11:13:01;2.10;;;2.00;;
6249;SDS011;3158;52.148;11.568;2023-08-12T11:18:09;1.92;;;1.83;;
6249;SDS011;3158;52.148;11.568;2023-08-12T11:23:11;1.77;;;1.70;;
6249;SDS011;3158;52.148;11.568;2023-08-12T11:28:12;2.20;;;1.67;;
6249;SDS011;3158;52.148;11.568;2023-08-12T11:33:15;1.73;;;1.73;;
6249;SDS011;3158;52.148;11.568;2023-08-12T11:38:18;1.48;;;1.48;;
6249;SDS011;3158;52.148;11.568;2023-08-12T11:43:22;1.00;;;0.95;;
6249;SDS011;3158;52.148;11.568;2023-08-12T11:48:23;0.80;;;0.80;;
6249;SDS011;3158;52.148;11.568;2023-08-12T11:53:25;2.15;;;0.95;;
6249;SDS011;3158;52.148;11.568;2023-08-12T11:58:26;1.00;;;1.00;;
6249;SDS011;3158;52.148;11.568;2023-08-12T12:03:27;1.05;;;1.05;;
6249;SDS011;3158;52.148;11.568;2023-08-12T12:08:30;0.90;;;0.90;;
6249;SDS011;3158;52.148;11.568;2023-08-12T12:13:32;1.67;;;0.98;;
6249;SDS011;3158;52.148;11.568;2023-08-12T12:18:33;0.90;;;0.90;;
6249;SDS011;3158;52.148;11.568;2023-08-12T12:23:36;0.82;;;0.82;;
6249;SDS011;3158;52.148;11.568;2023-08-12T12:28:37;1.05;;;1.05;;
6249;SDS011;3158;52.148;11.568;2023-08-12T12:33:39;0.90;;;0.90;;
6249;SDS011;3158;52.148;11.568;2023-08-12T12:38:40;1.25;;;1.25;;
6249;SDS011;3158;52.148;11.568;2023-08-12T12:43:41;1.25;;;1.25;;
6249;SDS011;3158;52.148;11.568;2023-08-12T12:48:43;3.50;;;1.25;;
6249;SDS011;3158;52.148;11.568;2023-08-12T12:53:45;2.60;;;1.13;;
6249;SDS011;3158;52.148;11.568;2023-08-12T12:58:46;1.38;;;1.30;;
6249;SDS011;3158;52.148;11.568;2023-08-12T13:03:47;1.25;;;1.17;;
6249;SDS011;3158;52.148;11.568;2023-08-12T13:08:48;2.28;;;1.42;;
6249;SDS011;3158;52.148;11.568;2023-08-12T13:13:50;1.50;;;1.30;;
6249;SDS011;3158;52.148;11.568;2023-08-12T13:18:51;1.20;;;1.20;;
6249;SDS011;3158;52.148;11.568;2023-08-12T13:23:52;0.88;;;0.88;;
6249;SDS011;3158;52.148;11.568;2023-08-12T13:28:53;0.93;;;0.93;;
6249;SDS011;3158;52.148;11.568;2023-08-12T13:33:54;1.42;;;1.38;;
6249;SDS011;3158;52.148;11.568;2023-08-12T13:38:55;1.33;;;1.20;;
6249;SDS011;3158;52.148;11.568;2023-08-12T13:43:56;1.70;;;1.30;;
6249;SDS011;3158;52.148;11.568;2023-08-12T13:48:57;1.10;;;1.05;;
6249;SDS011;3158;52.148;11.568;2023-08-12T13:53:58;1.23;;;1.23;;
6249;SDS011;3158;52.148;11.568;2023-08-12T13:58:59;0.90;;;0.90;;
6249;SDS011;3158;52.148;11.568;2023-08-12T14:04:01;0.98;;;0.98;;
6249;SDS011;3158;52.148;11.568;2023-08-12T14:09:02;1.30;;;1.30;;
6249;SDS011;3158;52.148;11.568;2023-08-12T14:14:03;1.10;;;1.10;;
6249;SDS011;3158;52.148;11.568;2023-08-12T14:19:04;3.22;;;1.00;;
6249;SDS011;3158;52.148;11.568;2023-08-12T14:24:05;0.70;;;0.70;;
6249;SDS011;3158;52.148;11.568;2023-08-12T14:29:06;1.20;;;1.10;;
6249;SDS011;3158;52.148;11.568;2023-08-12T14:34:07;1.30;;;1.20;;
6249;SDS011;3158;52.148;11.568;2023-08-12T14:39:08;2.33;;;0.75;;
6249;SDS011;3158;52.148;11.568;2023-08-12T14:44:10;0.60;;;0.60;;
6249;SDS011;3158;52.148;11.568;2023-08-12T14:49:11;0.80;;;0.80;;
6249;SDS011;3158;52.148;11.568;2023-08-12T14:54:12;0.60;;;0.52;;
6249;SDS011;3158;52.148;11.568;2023-08-12T14:59:13;0.60;;;0.60;;
6249;SDS011;3158;52.148;11.568;2023-08-12T15:04:14;0.60;;;0.60;;
6249;SDS011;3158;52.148;11.568;2023-08-12T15:09:16;0.52;;;0.52;;
6249;SDS011;3158;52.148;11.568;2023-08-12T15:14:18;0.60;;;0.60;;
6249;SDS011;3158;52.148;11.568;2023-08-12T15:19:19;0.47;;;0.47;;
6249;SDS011;3158;52.148;11.568;2023-08-12T15:24:20;0.50;;;0.50;;
6249;SDS011;3158;52.148;11.568;2023-08-12T15:29:21;1.02;;;0.47;;
6249;SDS011;3158;52.148;11.568;2023-08-12T15:34:22;0.47;;;0.32;;
6249;SDS011;3158;52.148;11.568;2023-08-12T15:39:24;0.45;;;0.45;;
6249;SDS011;3158;52.148;11.568;2023-08-12T15:44:25;0.30;;;0.30;;
6249;SDS011;3158;52.148;11.568;2023-08-12T15:49:28;0.70;;;0.70;;
6249;SDS011;3158;52.148;11.568;2023-08-12T15:54:31;0.55;;;0.55;;
6249;SDS011;3158;52.148;11.568;2023-08-12T15:59:32;0.40;;;0.40;;
6249;SDS011;3158;52.148;11.568;2023-08-12T16:04:33;1.65;;;0.45;;
6249;SDS011;3158;52.148;11.568;2023-08-12T16:09:35;0.63;;;0.60;;
6249;SDS011;3158;52.148;11.568;2023-08-12T16:14:36;1.95;;;0.55;;
6249;SDS011;3158;52.148;11.568;2023-08-12T16:19:37;0.40;;;0.40;;
6249;SDS011;3158;52.148;11.568;2023-08-12T16:24:38;0.40;;;0.40;;
6249;SDS011;3158;52.148;11.568;2023-08-12T16:29:39;0.55;;;0.55;;
6249;SDS011;3158;52.148;11.568;2023-08-12T16:34:40;0.40;;;0.40;;
6249;SDS011;3158;52.148;11.568;2023-08-12T16:39:41;0.60;;;0.60;;
6249;SDS011;3158;52.148;11.568;2023-08-12T16:44:42;0.40;;;0.40;;
6249;SDS011;3158;52.148;11.568;2023-08-12T16:49:44;0.55;;;0.40;;
6249;SDS011;3158;52.148;11.568;2023-08-12T16:54:45;0.35;;;0.35;;
6249;SDS011;3158;52.148;11.568;2023-08-12T16:59:46;0.30;;;0.30;;
6249;SDS011;3158;52.148;11.568;2023-08-12T17:04:47;0.30;;;0.30;;
6249;SDS011;3158;52.148;11.568;2023-08-12T17:09:48;0.30;;;0.30;;
6249;SDS011;3158;52.148;11.568;2023-08-12T17:14:49;0.40;;;0.40;;
6249;SDS011;3158;52.148;11.568;2023-08-12T17:19:50;1.55;;;0.32;;
6249;SDS011;3158;52.148;11.568;2023-08-12T17:24:52;0.30;;;0.30;;
6249;SDS011;3158;52.148;11.568;2023-08-12T17:29:53;0.20;;;0.20;;
6249;SDS011;3158;52.148;11.568;2023-08-12T17:34:54;0.10;;;0.10;;
6249;SDS011;3158;52.148;11.568;2023-08-12T17:39:55;0.70;;;0.10;;
6249;SDS011;3158;52.148;11.568;2023-08-12T17:44:59;0.10;;;0.10;;
6249;SDS011;3158;52.148;11.568;2023-08-12T17:50:01;0.10;;;0.10;;
6249;SDS011;3158;52.148;11.568;2023-08-12T17:55:02;0.10;;;0.10;;
6249;SDS011;3158;52.148;11.568;2023-08-12T18:00:03;0.20;;;0.10;;
6249;SDS011;3158;52.148;11.568;2023-08-12T18:05:11;0.10;;;0.10;;
6249;SDS011;3158;52.148;11.568;2023-08-12T18:10:12;0.10;;;0.10;;
6249;SDS011;3158;52.148;11.568;2023-08-12T18:15:13;0.10;;;0.10;;
6249;SDS011;3158;52.148;11.568;2023-08-12T18:20:14;0.10;;;0.10;;
6249;SDS011;3158;52.148;11.568;2023-08-12T18:25:15;0.10;;;0.10;;
6249;SDS011;3158;52.148;11.568;2023-08-12T18:30:17;0.10;;;0.10;;
6249;SDS011;3158;52.148;11.568;2023-08-12T18:35:18;0.15;;;0.15;;
6249;SDS011;3158;52.148;11.568;2023-08-12T18:40:19;0.10;;;0.10;;
6249;SDS011;3158;52.148;11.568;2023-08-12T18:45:20;1.33;;;0.20;;
6249;SDS011;3158;52.148;11.568;2023-08-12T18:50:21;0.20;;;0.10;;
6249;SDS011;3158;52.148;11.568;2023-08-12T18:55:22;0.35;;;0.10;;
6249;SDS011;3158;52.148;11.568;2023-08-12T19:00:23;0.10;;;0.10;;
6249;SDS011;3158;52.148;11.568;2023-08-12T19:05:24;3.50;;;0.22;;
6249;SDS011;3158;52.148;11.568;2023-08-12T19:10:26;0.10;;;0.10;;
6249;SDS011;3158;52.148;11.568;2023-08-12T19:15:27;0.45;;;0.20;;
6249;SDS011;3158;52.148;11.568;2023-08-12T19:20:28;0.10;;;0.10;;
6249;SDS011;3158;52.148;11.568;2023-08-12T19:25:29;0.10;;;0.10;;
6249;SDS011;3158;52.148;11.568;2023-08-12T19:30:31;0.20;;;0.20;;
6249;SDS011;3158;52.148;11.568;2023-08-12T19:35:32;6.03;;;0.20;;
6249;SDS011;3158;52.148;11.568;2023-08-12T19:40:33;0.28;;;0.25;;
6249;SDS011;3158;52.148;11.568;2023-08-12T19:45:34;0.20;;;0.20;;
6249;SDS011;3158;52.148;11.568;2023-08-12T19:50:35;1.63;;;0.30;;
6249;SDS011;3158;52.148;11.568;2023-08-12T19:55:36;1.73;;;0.63;;
6249;SDS011;3158;52.148;11.568;2023-08-12T20:00:38;0.47;;;0.47;;
6249;SDS011;3158;52.148;11.568;2023-08-12T20:05:39;0.40;;;0.40;;
6249;SDS011;3158;52.148;11.568;2023-08-12T20:10:41;4.13;;;0.60;;
6249;SDS011;3158;52.148;11.568;2023-08-12T20:15:42;0.55;;;0.55;;
6249;SDS011;3158;52.148;11.568;2023-08-12T20:20:43;0.80;;;0.60;;
6249;SDS011;3158;52.148;11.568;2023-08-12T20:25:48;0.60;;;0.60;;
6249;SDS011;3158;52.148;11.568;2023-08-12T20:30:49;0.63;;;0.38;;
6249;SDS011;3158;52.148;11.568;2023-08-12T20:35:50;0.40;;;0.40;;
6249;SDS011;3158;52.148;11.568;2023-08-12T20:40:51;0.40;;;0.40;;
6249;SDS011;3158;52.148;11.568;2023-08-12T20:45:52;0.82;;;0.40;;
6249;SDS011;3158;52.148;11.568;2023-08-12T20:50:54;0.40;;;0.40;;
6249;SDS011;3158;52.148;11.568;2023-08-12T20:55:55;0.47;;;0.47;;
6249;SDS011;3158;52.148;11.568;2023-08-12T21:00:56;0.50;;;0.50;;
6249;SDS011;3158;52.148;11.568;2023-08-12T21:05:57;1.40;;;0.40;;
6249;SDS011;3158;52.148;11.568;2023-08-12T21:10:58;0.35;;;0.35;;
6249;SDS011;3158;52.148;11.568;2023-08-12T21:15:59;0.40;;;0.40;;
6249;SDS011;3158;52.148;11.568;2023-08-12T21:21:00;0.50;;;0.50;;
6249;SDS011;3158;52.148;11.568;2023-08-12T21:26:01;1.85;;;0.55;;
6249;SDS011;3158;52.148;11.568;2023-08-12T21:31:02;0.40;;;0.40;;
6249;SDS011;3158;52.148;11.568;2023-08-12T21:36:03;0.95;;;0.40;;
6249;SDS011;3158;52.148;11.568;2023-08-12T21:41:04;0.30;;;0.30;;
6249;SDS011;3158;52.148;11.568;2023-08-12T21:46:05;0.30;;;0.30;;
6249;SDS011;3158;52.148;11.568;2023-08-12T21:51:06;0.52;;;0.45;;
6249;SDS011;3158;52.148;11.568;2023-08-12T21:56:08;0.20;;;0.20;;
6249;SDS011;3158;52.148;11.568;2023-08-12T22:01:10;0.22;;;0.22;;
6249;SDS011;3158;52.148;11.568;2023-08-12T22:06:11;0.40;;;0.40;;
6249;SDS011;3158;52.148;11.568;2023-08-12T22:11:12;0.43;;;0.30;;
6249;SDS011;3158;52.148;11.568;2023-08-12T22:16:13;0.17;;;0.17;;
6249;SDS011;3158;52.148;11.568;2023-08-12T22:21:14;0.30;;;0.30;;
6249;SDS011;3158;52.148;11.568;2023-08-12T22:26:15;0.30;;;0.30;;
6249;SDS011;3158;52.148;11.568;2023-08-12T22:31:16;0.50;;;0.50;;
6249;SDS011;3158;52.148;11.568;2023-08-12T22:36:17;0.30;;;0.30;;
6249;SDS011;3158;52.148;11.568;2023-08-12T22:41:18;0.20;;;0.20;;
6249;SDS011;3158;52.148;11.568;2023-08-12T22:46:19;0.20;;;0.20;;
6249;SDS011;3158;52.148;11.568;2023-08-12T22:51:20;0.20;;;0.20;;
6249;SDS011;3158;52.148;11.568;2023-08-12T22:56:21;0.52;;;0.52;;
6249;SDS011;3158;52.148;11.568;2023-08-12T23:01:22;0.30;;;0.30;;
6249;SDS011;3158;52.148;11.568;2023-08-12T23:06:24;0.30;;;0.30;;
6249;SDS011;3158;52.148;11.568;2023-08-12T23:11:25;0.40;;;0.40;;
6249;SDS011;3158;52.148;11.568;2023-08-12T23:16:27;1.42;;;0.50;;
6249;SDS011;3158;52.148;11.568;2023-08-12T23:21:29;0.73;;;0.73;;
6249;SDS011;3158;52.148;11.568;2023-08-12T23:26:30;0.50;;;0.50;;
6249;SDS011;3158;52.148;11.568;2023-08-12T23:31:31;0.45;;;0.45;;
6249;SDS011;3158;52.148;11.568;2023-08-12T23:36:32;0.30;;;0.30;;
6249;SDS011;3158;52.148;11.568;2023-08-12T23:41:34;0.28;;;0.28;;
6249;SDS011;3158;52.148;11.568;2023-08-12T23:46:35;0.38;;;0.38;;
6249;SDS011;3158;52.148;11.568;2023-08-12T23:51:38;0.30;;;0.30;;
6249;SDS011;3158;52.148;11.568;2023-08-12T23:56:39;0.40;;;0.38;;
